sensor_id;sensor_type;location;lat;lon;timestamp;P1;durP1;ratioP1;P2;durP2;ratioP2
20181;SDS011;10250;50.756;6.172;2024-02-28T00:01:22;83.63;;;27.90;;
20181;SDS011;10250;50.756;6.172;2024-02-28T00:03:23;81.93;;;28.43;;
20181;SDS011;10250;50.756;6.172;2024-02-28T00:05:23;74.07;;;27.53;;
20181;SDS011;10250;50.756;6.172;2024-02-28T00:07:24;80.20;;;27.00;;
20181;SDS011;10250;50.756;6.172;2024-02-28T00:09:25;75.97;;;27.27;;
20181;SDS011;10250;50.756;6.172;2024-02-28T00:11:25;72.10;;;24.63;;
20181;SDS011;10250;50.756;6.172;2024-02-28T00:13:26;81.60;;;28.30;;
20181;SDS011;10250;50.756;6.172;2024-02-28T00:15:26;75.60;;;27.00;;
20181;SDS011;10250;50.756;6.172;2024-02-28T00:17:27;67.70;;;25.97;;
20181;SDS011;10250;50.756;6.172;2024-02-28T00:19:27;70.80;;;27.07;;
20181;SDS011;10250;50.756;6.172;2024-02-28T00:21:28;74.97;;;27.20;;
20181;SDS011;10250;50.756;6.172;2024-02-28T00:23:29;78.63;;;26.53;;
20181;SDS011;10250;50.756;6.172;2024-02-28T00:25:30;80.80;;;27.53;;
20181;SDS011;10250;50.756;6.172;2024-02-28T00:27:30;69.97;;;25.63;;
20181;SDS011;10250;50.756;6.172;2024-02-28T00:29:31;77.10;;;26.40;;
20181;SDS011;10250;50.756;6.172;2024-02-28T00:31:31;75.03;;;25.30;;
20181;SDS011;10250;50.756;6.172;2024-02-28T00:33:32;73.90;;;25.43;;
20181;SDS011;10250;50.756;6.172;2024-02-28T00:35:33;73.03;;;25.07;;
20181;SDS011;10250;50.756;6.172;2024-02-28T00:37:34;72.83;;;26.03;;
20181;SDS011;10250;50.756;6.172;2024-02-28T00:39:34;75.10;;;26.23;;
20181;SDS011;10250;50.756;6.172;2024-02-28T00:41:35;71.67;;;25.17;;
20181;SDS011;10250;50.756;6.172;2024-02-28T00:43:36;74.30;;;25.10;;
20181;SDS011;10250;50.756;6.172;2024-02-28T00:45:37;70.00;;;25.60;;
20181;SDS011;10250;50.756;6.172;2024-02-28T00:47:37;68.70;;;25.60;;
20181;SDS011;10250;50.756;6.172;2024-02-28T00:49:40;69.23;;;24.43;;
20181;SDS011;10250;50.756;6.172;2024-02-28T00:51:40;64.80;;;23.83;;
20181;SDS011;10250;50.756;6.172;2024-02-28T00:53:41;62.93;;;24.53;;
20181;SDS011;10250;50.756;6.172;2024-02-28T00:55:43;65.57;;;24.50;;
20181;SDS011;10250;50.756;6.172;2024-02-28T00:57:43;72.50;;;25.03;;
20181;SDS011;10250;50.756;6.172;2024-02-28T00:59:44;72.23;;;26.40;;
20181;SDS011;10250;50.756;6.172;2024-02-28T01:01:45;71.43;;;26.83;;
20181;SDS011;10250;50.756;6.172;2024-02-28T01:03:45;69.93;;;25.23;;
20181;SDS011;10250;50.756;6.172;2024-02-28T01:05:46;72.63;;;26.30;;
20181;SDS011;10250;50.756;6.172;2024-02-28T01:07:48;73.00;;;25.40;;
20181;SDS011;10250;50.756;6.172;2024-02-28T01:09:49;69.20;;;25.43;;
20181;SDS011;10250;50.756;6.172;2024-02-28T01:11:49;66.37;;;24.83;;
20181;SDS011;10250;50.756;6.172;2024-02-28T01:13:50;72.27;;;25.00;;
20181;SDS011;10250;50.756;6.172;2024-02-28T01:15:51;67.40;;;23.87;;
20181;SDS011;10250;50.756;6.172;2024-02-28T01:17:51;67.27;;;23.70;;
20181;SDS011;10250;50.756;6.172;2024-02-28T01:19:52;64.57;;;22.93;;
20181;SDS011;10250;50.756;6.172;2024-02-28T01:21:53;65.73;;;24.03;;
20181;SDS011;10250;50.756;6.172;2024-02-28T01:23:53;72.77;;;25.60;;
20181;SDS011;10250;50.756;6.172;2024-02-28T01:25:54;66.23;;;23.37;;
20181;SDS011;10250;50.756;6.172;2024-02-28T01:27:55;62.27;;;23.60;;
20181;SDS011;10250;50.756;6.172;2024-02-28T01:29:57;70.67;;;24.37;;
20181;SDS011;10250;50.756;6.172;2024-02-28T01:31:58;69.17;;;24.73;;
20181;SDS011;10250;50.756;6.172;2024-02-28T01:33:59;70.60;;;23.93;;
20181;SDS011;10250;50.756;6.172;2024-02-28T01:35:59;66.23;;;23.63;;
20181;SDS011;10250;50.756;6.172;2024-02-28T01:38:00;70.57;;;24.50;;
20181;SDS011;10250;50.756;6.172;2024-02-28T01:40:00;67.30;;;24.50;;
20181;SDS011;10250;50.756;6.172;2024-02-28T01:42:01;66.37;;;22.77;;
20181;SDS011;10250;50.756;6.172;2024-02-28T01:44:01;65.70;;;22.43;;
20181;SDS011;10250;50.756;6.172;2024-02-28T01:46:03;67.73;;;23.57;;
20181;SDS011;10250;50.756;6.172;2024-02-28T01:48:10;65.70;;;22.73;;
20181;SDS011;10250;50.756;6.172;2024-02-28T01:50:11;71.40;;;23.67;;
20181;SDS011;10250;50.756;6.172;2024-02-28T01:52:12;66.53;;;23.00;;
20181;SDS011;10250;50.756;6.172;2024-02-28T01:54:14;68.13;;;23.47;;
20181;SDS011;10250;50.756;6.172;2024-02-28T01:56:15;66.57;;;22.80;;
20181;SDS011;10250;50.756;6.172;2024-02-28T01:58:16;70.60;;;23.43;;
20181;SDS011;10250;50.756;6.172;2024-02-28T02:00:17;63.57;;;23.17;;
20181;SDS011;10250;50.756;6.172;2024-02-28T02:02:18;65.40;;;23.80;;
20181;SDS011;10250;50.756;6.172;2024-02-28T02:04:19;64.07;;;23.27;;
20181;SDS011;10250;50.756;6.172;2024-02-28T02:06:20;70.57;;;23.77;;
20181;SDS011;10250;50.756;6.172;2024-02-28T02:08:22;64.43;;;22.53;;
20181;SDS011;10250;50.756;6.172;2024-02-28T02:10:23;60.07;;;22.37;;
20181;SDS011;10250;50.756;6.172;2024-02-28T02:12:25;64.17;;;22.73;;
20181;SDS011;10250;50.756;6.172;2024-02-28T02:14:26;66.90;;;22.83;;
20181;SDS011;10250;50.756;6.172;2024-02-28T02:16:26;68.17;;;22.80;;
20181;SDS011;10250;50.756;6.172;2024-02-28T02:18:27;69.17;;;23.27;;
20181;SDS011;10250;50.756;6.172;2024-02-28T02:20:29;66.23;;;23.37;;
20181;SDS011;10250;50.756;6.172;2024-02-28T02:22:36;66.57;;;23.50;;
20181;SDS011;10250;50.756;6.172;2024-02-28T02:24:40;58.13;;;21.40;;
20181;SDS011;10250;50.756;6.172;2024-02-28T02:26:41;62.87;;;21.40;;
20181;SDS011;10250;50.756;6.172;2024-02-28T02:28:44;66.90;;;22.23;;
20181;SDS011;10250;50.756;6.172;2024-02-28T02:30:45;63.00;;;22.33;;
20181;SDS011;10250;50.756;6.172;2024-02-28T02:32:47;62.80;;;20.63;;
20181;SDS011;10250;50.756;6.172;2024-02-28T02:34:48;63.03;;;20.93;;
20181;SDS011;10250;50.756;6.172;2024-02-28T02:36:48;66.07;;;22.70;;
20181;SDS011;10250;50.756;6.172;2024-02-28T02:38:49;62.63;;;22.53;;
20181;SDS011;10250;50.756;6.172;2024-02-28T02:40:50;71.63;;;23.87;;
20181;SDS011;10250;50.756;6.172;2024-02-28T02:42:51;62.87;;;22.90;;
20181;SDS011;10250;50.756;6.172;2024-02-28T02:44:51;58.37;;;20.53;;
20181;SDS011;10250;50.756;6.172;2024-02-28T02:46:52;64.90;;;21.03;;
20181;SDS011;10250;50.756;6.172;2024-02-28T02:48:52;59.20;;;21.67;;
20181;SDS011;10250;50.756;6.172;2024-02-28T02:50:53;63.20;;;21.63;;
20181;SDS011;10250;50.756;6.172;2024-02-28T02:52:54;59.43;;;20.13;;
20181;SDS011;10250;50.756;6.172;2024-02-28T02:54:54;67.30;;;21.83;;
20181;SDS011;10250;50.756;6.172;2024-02-28T02:56:55;66.27;;;22.40;;
20181;SDS011;10250;50.756;6.172;2024-02-28T02:58:55;61.63;;;22.03;;
20181;SDS011;10250;50.756;6.172;2024-02-28T03:00:56;59.87;;;21.50;;
20181;SDS011;10250;50.756;6.172;2024-02-28T03:02:56;57.60;;;20.70;;
20181;SDS011;10250;50.756;6.172;2024-02-28T03:04:57;62.27;;;21.00;;
20181;SDS011;10250;50.756;6.172;2024-02-28T03:06:57;61.17;;;20.03;;
20181;SDS011;10250;50.756;6.172;2024-02-28T03:08:58;60.53;;;20.20;;
20181;SDS011;10250;50.756;6.172;2024-02-28T03:10:59;59.83;;;20.83;;
20181;SDS011;10250;50.756;6.172;2024-02-28T03:12:59;60.80;;;19.70;;
20181;SDS011;10250;50.756;6.172;2024-02-28T03:15:00;62.73;;;22.03;;
20181;SDS011;10250;50.756;6.172;2024-02-28T03:17:01;65.33;;;21.60;;
20181;SDS011;10250;50.756;6.172;2024-02-28T03:19:01;63.83;;;20.90;;
20181;SDS011;10250;50.756;6.172;2024-02-28T03:21:02;59.73;;;19.60;;
20181;SDS011;10250;50.756;6.172;2024-02-28T03:23:03;60.80;;;20.20;;
20181;SDS011;10250;50.756;6.172;2024-02-28T03:25:06;63.80;;;19.70;;
20181;SDS011;10250;50.756;6.172;2024-02-28T03:27:07;66.80;;;20.90;;
20181;SDS011;10250;50.756;6.172;2024-02-28T03:29:08;59.50;;;20.37;;
20181;SDS011;10250;50.756;6.172;2024-02-28T03:31:09;61.47;;;21.23;;
20181;SDS011;10250;50.756;6.172;2024-02-28T03:33:09;66.43;;;20.77;;
20181;SDS011;10250;50.756;6.172;2024-02-28T03:35:10;61.30;;;21.37;;
20181;SDS011;10250;50.756;6.172;2024-02-28T03:37:10;59.00;;;21.30;;
20181;SDS011;10250;50.756;6.172;2024-02-28T03:39:11;62.53;;;20.50;;
20181;SDS011;10250;50.756;6.172;2024-02-28T03:41:12;61.17;;;20.83;;
20181;SDS011;10250;50.756;6.172;2024-02-28T03:43:12;61.80;;;20.37;;
20181;SDS011;10250;50.756;6.172;2024-02-28T03:45:13;67.13;;;21.37;;
20181;SDS011;10250;50.756;6.172;2024-02-28T03:47:14;67.90;;;22.13;;
20181;SDS011;10250;50.756;6.172;2024-02-28T03:49:14;61.37;;;21.37;;
20181;SDS011;10250;50.756;6.172;2024-02-28T03:51:15;62.57;;;20.60;;
20181;SDS011;10250;50.756;6.172;2024-02-28T03:53:15;65.60;;;21.63;;
20181;SDS011;10250;50.756;6.172;2024-02-28T03:55:16;69.50;;;22.53;;
20181;SDS011;10250;50.756;6.172;2024-02-28T03:57:17;70.47;;;21.20;;
20181;SDS011;10250;50.756;6.172;2024-02-28T03:59:17;62.23;;;21.07;;
20181;SDS011;10250;50.756;6.172;2024-02-28T04:01:18;60.83;;;20.43;;
20181;SDS011;10250;50.756;6.172;2024-02-28T04:03:18;69.57;;;21.20;;
20181;SDS011;10250;50.756;6.172;2024-02-28T04:05:19;63.07;;;21.33;;
20181;SDS011;10250;50.756;6.172;2024-02-28T04:07:19;63.20;;;21.47;;
20181;SDS011;10250;50.756;6.172;2024-02-28T04:09:20;64.83;;;21.83;;
20181;SDS011;10250;50.756;6.172;2024-02-28T04:11:21;67.83;;;22.23;;
20181;SDS011;10250;50.756;6.172;2024-02-28T04:13:21;64.33;;;22.03;;
20181;SDS011;10250;50.756;6.172;2024-02-28T04:15:22;63.57;;;21.60;;
20181;SDS011;10250;50.756;6.172;2024-02-28T04:17:25;61.03;;;21.00;;
20181;SDS011;10250;50.756;6.172;2024-02-28T04:19:26;59.73;;;21.57;;
20181;SDS011;10250;50.756;6.172;2024-02-28T04:21:26;66.50;;;21.73;;
20181;SDS011;10250;50.756;6.172;2024-02-28T04:23:27;66.07;;;21.60;;
20181;SDS011;10250;50.756;6.172;2024-02-28T04:25:28;63.30;;;22.20;;
20181;SDS011;10250;50.756;6.172;2024-02-28T04:27:29;64.83;;;21.20;;
20181;SDS011;10250;50.756;6.172;2024-02-28T04:29:29;62.93;;;22.80;;
20181;SDS011;10250;50.756;6.172;2024-02-28T04:31:30;55.80;;;20.70;;
20181;SDS011;10250;50.756;6.172;2024-02-28T04:33:31;57.63;;;20.37;;
20181;SDS011;10250;50.756;6.172;2024-02-28T04:35:32;55.13;;;20.63;;
20181;SDS011;10250;50.756;6.172;2024-02-28T04:37:33;59.13;;;20.53;;
20181;SDS011;10250;50.756;6.172;2024-02-28T04:39:34;56.53;;;20.70;;
20181;SDS011;10250;50.756;6.172;2024-02-28T04:41:35;60.53;;;20.43;;
20181;SDS011;10250;50.756;6.172;2024-02-28T04:43:36;60.33;;;19.60;;
20181;SDS011;10250;50.756;6.172;2024-02-28T04:45:36;62.47;;;20.87;;
20181;SDS011;10250;50.756;6.172;2024-02-28T04:47:37;54.77;;;19.33;;
20181;SDS011;10250;50.756;6.172;2024-02-28T04:49:38;54.87;;;20.30;;
20181;SDS011;10250;50.756;6.172;2024-02-28T04:51:38;57.37;;;20.40;;
20181;SDS011;10250;50.756;6.172;2024-02-28T04:53:39;57.87;;;18.80;;
20181;SDS011;10250;50.756;6.172;2024-02-28T04:55:40;54.70;;;18.70;;
20181;SDS011;10250;50.756;6.172;2024-02-28T04:57:40;51.87;;;18.03;;
20181;SDS011;10250;50.756;6.172;2024-02-28T04:59:43;56.70;;;18.80;;
20181;SDS011;10250;50.756;6.172;2024-02-28T05:01:43;61.93;;;19.37;;
20181;SDS011;10250;50.756;6.172;2024-02-28T05:03:45;55.00;;;18.40;;
20181;SDS011;10250;50.756;6.172;2024-02-28T05:05:46;61.23;;;20.23;;
20181;SDS011;10250;50.756;6.172;2024-02-28T05:07:46;59.87;;;20.00;;
20181;SDS011;10250;50.756;6.172;2024-02-28T05:09:47;61.73;;;20.03;;
20181;SDS011;10250;50.756;6.172;2024-02-28T05:11:47;63.73;;;19.87;;
20181;SDS011;10250;50.756;6.172;2024-02-28T05:13:48;63.17;;;21.80;;
20181;SDS011;10250;50.756;6.172;2024-02-28T05:15:49;67.43;;;21.00;;
20181;SDS011;10250;50.756;6.172;2024-02-28T05:17:50;64.40;;;20.57;;
20181;SDS011;10250;50.756;6.172;2024-02-28T05:19:52;58.57;;;19.97;;
20181;SDS011;10250;50.756;6.172;2024-02-28T05:21:53;61.83;;;19.53;;
20181;SDS011;10250;50.756;6.172;2024-02-28T05:23:53;59.67;;;21.13;;
20181;SDS011;10250;50.756;6.172;2024-02-28T05:25:54;53.30;;;17.63;;
20181;SDS011;10250;50.756;6.172;2024-02-28T05:27:54;63.93;;;20.43;;
20181;SDS011;10250;50.756;6.172;2024-02-28T05:29:55;57.37;;;19.23;;
20181;SDS011;10250;50.756;6.172;2024-02-28T05:31:55;55.53;;;18.97;;
20181;SDS011;10250;50.756;6.172;2024-02-28T05:33:56;57.43;;;18.93;;
20181;SDS011;10250;50.756;6.172;2024-02-28T05:35:57;60.17;;;19.13;;
20181;SDS011;10250;50.756;6.172;2024-02-28T05:37:57;52.93;;;17.50;;
20181;SDS011;10250;50.756;6.172;2024-02-28T05:39:58;51.60;;;18.57;;
20181;SDS011;10250;50.756;6.172;2024-02-28T05:41:59;58.80;;;18.63;;
20181;SDS011;10250;50.756;6.172;2024-02-28T05:43:59;61.27;;;19.47;;
20181;SDS011;10250;50.756;6.172;2024-02-28T05:46:00;56.87;;;17.87;;
20181;SDS011;10250;50.756;6.172;2024-02-28T05:48:00;49.40;;;17.40;;
20181;SDS011;10250;50.756;6.172;2024-02-28T05:50:01;53.23;;;16.83;;
20181;SDS011;10250;50.756;6.172;2024-02-28T05:52:01;54.67;;;18.40;;
20181;SDS011;10250;50.756;6.172;2024-02-28T05:54:02;50.67;;;16.90;;
20181;SDS011;10250;50.756;6.172;2024-02-28T05:56:04;51.73;;;17.37;;
20181;SDS011;10250;50.756;6.172;2024-02-28T05:58:05;49.83;;;15.50;;
20181;SDS011;10250;50.756;6.172;2024-02-28T06:00:06;56.17;;;17.67;;
20181;SDS011;10250;50.756;6.172;2024-02-28T06:02:09;47.37;;;15.67;;
20181;SDS011;10250;50.756;6.172;2024-02-28T06:04:10;47.87;;;15.17;;
20181;SDS011;10250;50.756;6.172;2024-02-28T06:06:11;52.53;;;16.37;;
20181;SDS011;10250;50.756;6.172;2024-02-28T06:08:12;51.00;;;16.13;;
20181;SDS011;10250;50.756;6.172;2024-02-28T06:10:13;50.23;;;17.03;;
20181;SDS011;10250;50.756;6.172;2024-02-28T06:12:13;44.80;;;15.77;;
20181;SDS011;10250;50.756;6.172;2024-02-28T06:14:14;50.33;;;15.60;;
20181;SDS011;10250;50.756;6.172;2024-02-28T06:16:15;47.67;;;15.03;;
20181;SDS011;10250;50.756;6.172;2024-02-28T06:18:17;43.50;;;14.83;;
20181;SDS011;10250;50.756;6.172;2024-02-28T06:20:18;47.07;;;15.97;;
20181;SDS011;10250;50.756;6.172;2024-02-28T06:22:18;49.97;;;15.50;;
20181;SDS011;10250;50.756;6.172;2024-02-28T06:24:19;51.00;;;15.27;;
20181;SDS011;10250;50.756;6.172;2024-02-28T06:26:20;44.40;;;14.53;;
20181;SDS011;10250;50.756;6.172;2024-02-28T06:28:20;47.40;;;15.50;;
20181;SDS011;10250;50.756;6.172;2024-02-28T06:30:21;43.87;;;15.13;;
20181;SDS011;10250;50.756;6.172;2024-02-28T06:32:23;44.73;;;15.13;;
20181;SDS011;10250;50.756;6.172;2024-02-28T06:34:24;42.90;;;14.70;;
20181;SDS011;10250;50.756;6.172;2024-02-28T06:36:25;48.43;;;17.67;;
20181;SDS011;10250;50.756;6.172;2024-02-28T06:38:25;42.20;;;15.00;;
20181;SDS011;10250;50.756;6.172;2024-02-28T06:40:26;45.23;;;15.03;;
20181;SDS011;10250;50.756;6.172;2024-02-28T06:42:28;38.90;;;14.33;;
20181;SDS011;10250;50.756;6.172;2024-02-28T06:44:29;46.33;;;15.40;;
20181;SDS011;10250;50.756;6.172;2024-02-28T06:46:29;48.30;;;16.23;;
20181;SDS011;10250;50.756;6.172;2024-02-28T06:48:30;44.90;;;15.90;;
20181;SDS011;10250;50.756;6.172;2024-02-28T06:50:30;43.40;;;14.83;;
20181;SDS011;10250;50.756;6.172;2024-02-28T06:52:31;47.00;;;15.57;;
20181;SDS011;10250;50.756;6.172;2024-02-28T06:54:33;42.90;;;14.43;;
20181;SDS011;10250;50.756;6.172;2024-02-28T06:56:33;46.27;;;15.53;;
20181;SDS011;10250;50.756;6.172;2024-02-28T06:58:34;47.60;;;15.80;;
20181;SDS011;10250;50.756;6.172;2024-02-28T07:00:34;46.87;;;16.33;;
20181;SDS011;10250;50.756;6.172;2024-02-28T07:02:35;44.53;;;15.50;;
20181;SDS011;10250;50.756;6.172;2024-02-28T07:04:37;46.17;;;15.67;;
20181;SDS011;10250;50.756;6.172;2024-02-28T07:06:38;43.30;;;15.17;;
20181;SDS011;10250;50.756;6.172;2024-02-28T07:08:39;44.87;;;15.63;;
20181;SDS011;10250;50.756;6.172;2024-02-28T07:10:40;45.30;;;16.37;;
20181;SDS011;10250;50.756;6.172;2024-02-28T07:12:43;48.77;;;16.27;;
20181;SDS011;10250;50.756;6.172;2024-02-28T07:14:43;46.23;;;15.83;;
20181;SDS011;10250;50.756;6.172;2024-02-28T07:16:44;42.67;;;16.63;;
20181;SDS011;10250;50.756;6.172;2024-02-28T07:18:44;48.67;;;15.87;;
20181;SDS011;10250;50.756;6.172;2024-02-28T07:20:45;48.23;;;17.30;;
20181;SDS011;10250;50.756;6.172;2024-02-28T07:22:46;46.53;;;16.40;;
20181;SDS011;10250;50.756;6.172;2024-02-28T07:24:46;48.87;;;17.20;;
20181;SDS011;10250;50.756;6.172;2024-02-28T07:26:47;45.07;;;17.17;;
20181;SDS011;10250;50.756;6.172;2024-02-28T07:28:49;44.60;;;17.23;;
20181;SDS011;10250;50.756;6.172;2024-02-28T07:30:49;48.93;;;17.87;;
20181;SDS011;10250;50.756;6.172;2024-02-28T07:32:50;49.07;;;17.83;;
20181;SDS011;10250;50.756;6.172;2024-02-28T07:34:50;45.43;;;16.87;;
20181;SDS011;10250;50.756;6.172;2024-02-28T07:36:51;54.23;;;17.57;;
20181;SDS011;10250;50.756;6.172;2024-02-28T07:38:51;46.27;;;16.93;;
20181;SDS011;10250;50.756;6.172;2024-02-28T07:40:53;46.77;;;16.77;;
20181;SDS011;10250;50.756;6.172;2024-02-28T07:42:53;47.03;;;15.80;;
20181;SDS011;10250;50.756;6.172;2024-02-28T07:44:54;54.77;;;18.63;;
20181;SDS011;10250;50.756;6.172;2024-02-28T07:46:57;47.30;;;17.00;;
20181;SDS011;10250;50.756;6.172;2024-02-28T07:48:58;46.07;;;16.23;;
20181;SDS011;10250;50.756;6.172;2024-02-28T07:51:00;47.17;;;17.13;;
20181;SDS011;10250;50.756;6.172;2024-02-28T07:53:01;44.27;;;16.43;;
20181;SDS011;10250;50.756;6.172;2024-02-28T07:55:01;43.57;;;16.43;;
20181;SDS011;10250;50.756;6.172;2024-02-28T07:57:02;47.77;;;16.03;;
20181;SDS011;10250;50.756;6.172;2024-02-28T07:59:03;44.80;;;15.50;;
20181;SDS011;10250;50.756;6.172;2024-02-28T08:01:03;48.73;;;16.43;;
20181;SDS011;10250;50.756;6.172;2024-02-28T08:03:04;48.57;;;16.33;;
20181;SDS011;10250;50.756;6.172;2024-02-28T08:05:05;45.03;;;15.43;;
20181;SDS011;10250;50.756;6.172;2024-02-28T08:07:07;47.40;;;16.60;;
20181;SDS011;10250;50.756;6.172;2024-02-28T08:09:08;44.20;;;15.67;;
20181;SDS011;10250;50.756;6.172;2024-02-28T08:11:08;44.83;;;16.03;;
20181;SDS011;10250;50.756;6.172;2024-02-28T08:13:09;47.73;;;16.97;;
20181;SDS011;10250;50.756;6.172;2024-02-28T08:15:09;44.33;;;16.57;;
20181;SDS011;10250;50.756;6.172;2024-02-28T08:17:10;49.87;;;16.07;;
20181;SDS011;10250;50.756;6.172;2024-02-28T08:19:13;48.83;;;17.03;;
20181;SDS011;10250;50.756;6.172;2024-02-28T08:21:13;44.63;;;16.67;;
20181;SDS011;10250;50.756;6.172;2024-02-28T08:23:14;43.87;;;16.77;;
20181;SDS011;10250;50.756;6.172;2024-02-28T08:25:14;48.10;;;17.57;;
20181;SDS011;10250;50.756;6.172;2024-02-28T08:27:16;46.53;;;16.03;;
20181;SDS011;10250;50.756;6.172;2024-02-28T08:29:16;48.13;;;15.33;;
20181;SDS011;10250;50.756;6.172;2024-02-28T08:31:17;47.00;;;16.70;;
20181;SDS011;10250;50.756;6.172;2024-02-28T08:33:18;46.73;;;17.00;;
20181;SDS011;10250;50.756;6.172;2024-02-28T08:35:18;44.80;;;15.90;;
20181;SDS011;10250;50.756;6.172;2024-02-28T08:37:19;48.43;;;16.77;;
20181;SDS011;10250;50.756;6.172;2024-02-28T08:39:20;49.17;;;16.50;;
20181;SDS011;10250;50.756;6.172;2024-02-28T08:41:20;49.63;;;17.03;;
20181;SDS011;10250;50.756;6.172;2024-02-28T08:43:21;49.50;;;16.20;;
20181;SDS011;10250;50.756;6.172;2024-02-28T08:45:22;47.27;;;15.37;;
20181;SDS011;10250;50.756;6.172;2024-02-28T08:47:23;45.90;;;16.67;;
20181;SDS011;10250;50.756;6.172;2024-02-28T08:49:24;44.40;;;15.20;;
20181;SDS011;10250;50.756;6.172;2024-02-28T08:51:25;46.93;;;17.00;;
20181;SDS011;10250;50.756;6.172;2024-02-28T08:53:25;47.03;;;16.27;;
20181;SDS011;10250;50.756;6.172;2024-02-28T08:55:26;42.83;;;15.43;;
20181;SDS011;10250;50.756;6.172;2024-02-28T08:57:28;44.50;;;16.43;;
20181;SDS011;10250;50.756;6.172;2024-02-28T08:59:30;48.90;;;16.40;;
20181;SDS011;10250;50.756;6.172;2024-02-28T09:01:30;44.33;;;16.20;;
20181;SDS011;10250;50.756;6.172;2024-02-28T09:03:31;42.93;;;15.47;;
20181;SDS011;10250;50.756;6.172;2024-02-28T09:05:31;43.00;;;14.43;;
20181;SDS011;10250;50.756;6.172;2024-02-28T09:07:32;40.90;;;13.97;;
20181;SDS011;10250;50.756;6.172;2024-02-28T09:09:35;39.73;;;13.97;;
20181;SDS011;10250;50.756;6.172;2024-02-28T09:11:37;45.40;;;15.77;;
20181;SDS011;10250;50.756;6.172;2024-02-28T09:13:39;41.23;;;15.60;;
20181;SDS011;10250;50.756;6.172;2024-02-28T09:15:39;42.43;;;15.83;;
20181;SDS011;10250;50.756;6.172;2024-02-28T09:17:40;40.13;;;14.70;;
20181;SDS011;10250;50.756;6.172;2024-02-28T09:19:41;49.83;;;15.20;;
20181;SDS011;10250;50.756;6.172;2024-02-28T09:21:41;41.93;;;14.87;;
20181;SDS011;10250;50.756;6.172;2024-02-28T09:23:42;37.40;;;13.97;;
20181;SDS011;10250;50.756;6.172;2024-02-28T09:25:42;38.07;;;14.60;;
20181;SDS011;10250;50.756;6.172;2024-02-28T09:27:43;38.37;;;13.77;;
20181;SDS011;10250;50.756;6.172;2024-02-28T09:29:44;40.30;;;14.97;;
20181;SDS011;10250;50.756;6.172;2024-02-28T09:31:45;38.77;;;14.80;;
20181;SDS011;10250;50.756;6.172;2024-02-28T09:33:45;40.27;;;14.13;;
20181;SDS011;10250;50.756;6.172;2024-02-28T09:35:46;36.10;;;13.47;;
20181;SDS011;10250;50.756;6.172;2024-02-28T09:37:47;38.67;;;13.60;;
20181;SDS011;10250;50.756;6.172;2024-02-28T09:39:47;37.63;;;14.50;;
20181;SDS011;10250;50.756;6.172;2024-02-28T09:41:48;37.70;;;13.47;;
20181;SDS011;10250;50.756;6.172;2024-02-28T09:43:51;37.70;;;12.27;;
20181;SDS011;10250;50.756;6.172;2024-02-28T09:45:54;33.83;;;12.37;;
20181;SDS011;10250;50.756;6.172;2024-02-28T09:48:00;31.33;;;11.30;;
20181;SDS011;10250;50.756;6.172;2024-02-28T09:50:01;31.00;;;11.40;;
20181;SDS011;10250;50.756;6.172;2024-02-28T09:52:03;32.37;;;11.00;;
20181;SDS011;10250;50.756;6.172;2024-02-28T09:54:04;37.27;;;11.87;;
20181;SDS011;10250;50.756;6.172;2024-02-28T09:56:06;31.40;;;12.03;;
20181;SDS011;10250;50.756;6.172;2024-02-28T09:58:07;31.93;;;11.47;;
20181;SDS011;10250;50.756;6.172;2024-02-28T10:00:08;30.03;;;10.50;;
20181;SDS011;10250;50.756;6.172;2024-02-28T10:02:10;30.30;;;10.13;;
20181;SDS011;10250;50.756;6.172;2024-02-28T10:04:12;34.67;;;12.77;;
20181;SDS011;10250;50.756;6.172;2024-02-28T10:06:13;31.57;;;12.07;;
20181;SDS011;10250;50.756;6.172;2024-02-28T10:08:15;32.03;;;11.70;;
20181;SDS011;10250;50.756;6.172;2024-02-28T10:10:16;36.97;;;13.27;;
20181;SDS011;10250;50.756;6.172;2024-02-28T10:12:17;31.37;;;12.37;;
20181;SDS011;10250;50.756;6.172;2024-02-28T10:14:19;35.10;;;13.33;;
20181;SDS011;10250;50.756;6.172;2024-02-28T10:16:19;35.63;;;11.83;;
20181;SDS011;10250;50.756;6.172;2024-02-28T10:18:20;37.20;;;13.33;;
20181;SDS011;10250;50.756;6.172;2024-02-28T10:20:21;32.23;;;12.10;;
20181;SDS011;10250;50.756;6.172;2024-02-28T10:22:21;33.20;;;11.13;;
20181;SDS011;10250;50.756;6.172;2024-02-28T10:24:23;31.03;;;10.57;;
20181;SDS011;10250;50.756;6.172;2024-02-28T10:26:24;29.60;;;10.67;;
20181;SDS011;10250;50.756;6.172;2024-02-28T10:28:25;32.80;;;10.57;;
20181;SDS011;10250;50.756;6.172;2024-02-28T10:30:26;30.07;;;10.43;;
20181;SDS011;10250;50.756;6.172;2024-02-28T10:32:27;30.93;;;11.20;;
20181;SDS011;10250;50.756;6.172;2024-02-28T10:34:28;29.57;;;9.77;;
20181;SDS011;10250;50.756;6.172;2024-02-28T10:36:30;27.03;;;9.50;;
20181;SDS011;10250;50.756;6.172;2024-02-28T10:38:32;26.67;;;10.03;;
20181;SDS011;10250;50.756;6.172;2024-02-28T10:40:36;26.33;;;9.73;;
20181;SDS011;10250;50.756;6.172;2024-02-28T10:42:37;25.10;;;9.40;;
20181;SDS011;10250;50.756;6.172;2024-02-28T10:44:40;29.20;;;9.90;;
20181;SDS011;10250;50.756;6.172;2024-02-28T10:46:42;31.77;;;9.93;;
20181;SDS011;10250;50.756;6.172;2024-02-28T10:48:51;27.60;;;9.57;;
20181;SDS011;10250;50.756;6.172;2024-02-28T10:50:53;26.63;;;9.47;;
20181;SDS011;10250;50.756;6.172;2024-02-28T10:53:03;27.47;;;9.40;;
20181;SDS011;10250;50.756;6.172;2024-02-28T10:55:06;27.30;;;9.53;;
20181;SDS011;10250;50.756;6.172;2024-02-28T10:57:10;28.23;;;9.63;;
20181;SDS011;10250;50.756;6.172;2024-02-28T10:59:13;23.10;;;8.57;;
20181;SDS011;10250;50.756;6.172;2024-02-28T11:01:14;26.93;;;9.00;;
20181;SDS011;10250;50.756;6.172;2024-02-28T11:03:15;23.27;;;8.93;;
20181;SDS011;10250;50.756;6.172;2024-02-28T11:05:17;25.43;;;9.20;;
20181;SDS011;10250;50.756;6.172;2024-02-28T11:07:21;27.00;;;8.93;;
20181;SDS011;10250;50.756;6.172;2024-02-28T11:09:22;25.63;;;8.83;;
20181;SDS011;10250;50.756;6.172;2024-02-28T11:11:23;23.07;;;7.93;;
20181;SDS011;10250;50.756;6.172;2024-02-28T11:13:24;21.57;;;7.40;;
20181;SDS011;10250;50.756;6.172;2024-02-28T11:15:26;22.60;;;7.67;;
20181;SDS011;10250;50.756;6.172;2024-02-28T11:17:28;23.13;;;7.20;;
20181;SDS011;10250;50.756;6.172;2024-02-28T11:19:29;20.97;;;7.23;;
20181;SDS011;10250;50.756;6.172;2024-02-28T11:21:33;21.90;;;7.30;;
20181;SDS011;10250;50.756;6.172;2024-02-28T11:23:35;22.83;;;7.57;;
20181;SDS011;10250;50.756;6.172;2024-02-28T11:25:37;23.10;;;7.23;;
20181;SDS011;10250;50.756;6.172;2024-02-28T11:27:47;22.17;;;7.90;;
20181;SDS011;10250;50.756;6.172;2024-02-28T11:29:48;22.60;;;7.43;;
20181;SDS011;10250;50.756;6.172;2024-02-28T11:31:49;22.57;;;6.93;;
20181;SDS011;10250;50.756;6.172;2024-02-28T11:33:50;21.90;;;7.53;;
20181;SDS011;10250;50.756;6.172;2024-02-28T11:35:57;20.57;;;7.23;;
20181;SDS011;10250;50.756;6.172;2024-02-28T11:37:58;23.77;;;6.93;;
20181;SDS011;10250;50.756;6.172;2024-02-28T11:39:58;22.77;;;6.60;;
20181;SDS011;10250;50.756;6.172;2024-02-28T11:42:15;21.63;;;6.67;;
20181;SDS011;10250;50.756;6.172;2024-02-28T11:44:16;20.97;;;6.63;;
20181;SDS011;10250;50.756;6.172;2024-02-28T11:46:18;18.67;;;5.63;;
20181;SDS011;10250;50.756;6.172;2024-02-28T11:48:18;16.50;;;5.37;;
20181;SDS011;10250;50.756;6.172;2024-02-28T11:50:19;18.17;;;5.47;;